createdAt,value
2023-05-16T00:00:15.732Z,0.58
2023-05-16T00:01:15.787Z,0.55
2023-05-16T00:02:15.885Z,0.55
2023-05-16T00:03:15.992Z,0.56
2023-05-16T00:04:16.008Z,0.55
2023-05-16T00:05:16.096Z,0.56
2023-05-16T00:06:16.100Z,0.54
2023-05-16T00:07:16.172Z,0.54
2023-05-16T00:08:16.233Z,0.55
2023-05-16T00:09:16.271Z,0.54
2023-05-16T00:10:16.345Z,0.55
2023-05-16T00:11:16.408Z,0.54
2023-05-16T00:12:16.465Z,0.54
2023-05-16T00:13:16.529Z,0.54
2023-05-16T00:14:16.584Z,0.55
2023-05-16T00:15:16.657Z,0.54
2023-05-16T00:17:05.484Z,0.50
2023-05-16T00:18:05.304Z,0.50
2023-05-16T00:19:05.279Z,0.50
2023-05-16T00:20:05.229Z,0.50
2023-05-16T00:21:05.211Z,0.50
2023-05-16T00:22:05.207Z,0.51
2023-05-16T00:23:05.191Z,0.50
2023-05-16T00:24:05.201Z,0.51
2023-05-16T00:25:05.169Z,0.51
2023-05-16T00:26:05.155Z,0.51
2023-05-16T00:27:05.146Z,0.50
2023-05-16T00:28:05.138Z,0.51
2023-05-16T00:29:05.117Z,0.53
2023-05-16T00:30:05.160Z,0.51
2023-05-16T00:31:05.107Z,0.52
2023-05-16T00:32:05.133Z,0.52
2023-05-16T00:33:05.101Z,0.53
2023-05-16T00:34:05.121Z,0.51
2023-05-16T00:35:05.062Z,0.52
2023-05-16T00:36:05.071Z,0.51
2023-05-16T00:37:05.063Z,0.53
2023-05-16T00:38:05.058Z,0.52
2023-05-16T00:39:05.065Z,0.50
2023-05-16T00:40:05.034Z,0.54
2023-05-16T00:41:05.035Z,0.51
2023-05-16T00:42:05.021Z,0.50
2023-05-16T00:43:05.015Z,0.51
2023-05-16T00:44:05.002Z,0.52
2023-05-16T00:45:05.036Z,0.51
2023-05-16T00:46:05.025Z,0.55
2023-05-16T00:47:04.977Z,0.50
2023-05-16T00:48:05.028Z,0.52
2023-05-16T00:49:04.984Z,0.53
2023-05-16T00:50:04.976Z,0.53
2023-05-16T00:51:04.952Z,0.52
2023-05-16T00:52:04.964Z,0.53
2023-05-16T00:53:04.929Z,0.51
2023-05-16T00:54:04.919Z,0.50
2023-05-16T00:55:04.917Z,0.52
2023-05-16T00:56:04.952Z,0.51
2023-05-16T00:57:05.008Z,0.54
2023-05-16T00:58:05.046Z,0.52
2023-05-16T00:59:05.095Z,0.53
2023-05-16T01:00:05.142Z,0.51
2023-05-16T01:01:05.274Z,0.50
2023-05-16T01:02:05.218Z,0.51
2023-05-16T01:03:05.335Z,0.52
2023-05-16T01:04:05.631Z,0.51
2023-05-16T01:05:05.404Z,0.52
2023-05-16T01:06:05.404Z,0.51
2023-05-16T01:07:05.440Z,0.54
2023-05-16T01:08:05.495Z,0.53
2023-05-16T01:09:05.541Z,0.51
2023-05-16T01:10:05.589Z,0.52
2023-05-16T01:11:05.619Z,0.53
2023-05-16T01:12:05.681Z,0.52
2023-05-16T01:13:05.732Z,0.53
2023-05-16T01:14:05.781Z,0.51
2023-05-16T01:15:05.835Z,0.53
2023-05-16T01:16:05.962Z,0.51
2023-05-16T01:17:05.937Z,0.52
2023-05-16T01:18:06.036Z,0.51
2023-05-16T01:19:06.138Z,0.52
2023-05-16T01:20:06.093Z,0.51
2023-05-16T01:21:06.151Z,0.51
2023-05-16T01:22:06.214Z,0.52
2023-05-16T01:23:06.264Z,0.53
2023-05-16T01:24:06.304Z,0.52
2023-05-16T01:25:06.357Z,0.51
2023-05-16T01:26:06.522Z,0.51
2023-05-16T01:27:06.462Z,0.51
2023-05-16T01:28:06.506Z,0.51
2023-05-16T01:29:06.558Z,0.51
2023-05-16T01:30:06.629Z,0.52
2023-05-16T01:31:06.716Z,0.53
2023-05-16T01:32:06.758Z,0.52
2023-05-16T01:33:06.808Z,0.51
2023-05-16T01:34:06.854Z,0.53
2023-05-16T01:35:06.888Z,0.51
2023-05-16T01:36:06.946Z,0.50
2023-05-16T01:37:06.998Z,0.54
2023-05-16T01:38:07.039Z,0.54
2023-05-16T01:39:07.081Z,0.52
2023-05-16T01:40:07.142Z,0.52
2023-05-16T01:41:07.205Z,0.53
2023-05-16T01:42:07.258Z,0.52
2023-05-16T01:43:07.293Z,0.52
2023-05-16T01:44:07.349Z,0.51
2023-05-16T01:45:07.398Z,0.55
2023-05-16T01:46:07.461Z,0.52
2023-05-16T01:47:07.621Z,0.53
2023-05-16T01:48:07.615Z,0.52
2023-05-16T01:49:07.609Z,0.51
2023-05-16T01:50:07.648Z,0.53
2023-05-16T01:51:07.697Z,0.54
2023-05-16T01:52:07.733Z,0.54
2023-05-16T01:53:07.806Z,0.51
2023-05-16T01:54:07.850Z,0.53
2023-05-16T01:55:07.912Z,0.53
2023-05-16T01:56:08.036Z,0.51
2023-05-16T01:57:08.044Z,0.52
2023-05-16T01:58:08.075Z,0.53
2023-05-16T01:59:08.118Z,0.52
2023-05-16T02:00:08.165Z,0.54
2023-05-16T02:01:08.254Z,0.52
2023-05-16T02:02:08.269Z,0.53
2023-05-16T02:03:08.360Z,0.53
2023-05-16T02:04:08.381Z,0.53
2023-05-16T02:05:08.411Z,0.53
2023-05-16T02:06:08.470Z,0.52
2023-05-16T02:07:08.504Z,0.52
2023-05-16T02:08:08.549Z,0.53
2023-05-16T02:09:08.594Z,0.52
2023-05-16T02:10:08.651Z,0.53
2023-05-16T02:11:08.671Z,0.53
2023-05-16T02:12:08.718Z,0.52
2023-05-16T02:13:08.776Z,0.53
2023-05-16T02:14:08.820Z,0.51
2023-05-16T02:15:08.889Z,0.53
2023-05-16T02:16:08.954Z,0.54
2023-05-16T02:17:09.016Z,0.53
2023-05-16T02:18:09.054Z,0.54
2023-05-16T02:19:09.058Z,0.54
2023-05-16T02:20:09.071Z,0.54
2023-05-16T02:21:09.109Z,0.55
2023-05-16T02:22:09.124Z,0.52
2023-05-16T02:23:09.142Z,0.53
2023-05-16T02:24:09.149Z,0.53
2023-05-16T02:25:09.185Z,0.53
2023-05-16T02:26:09.227Z,0.52
2023-05-16T02:27:09.246Z,0.54
2023-05-16T02:28:09.278Z,0.54
2023-05-16T02:29:09.300Z,0.51
2023-05-16T02:30:09.349Z,0.51
2023-05-16T02:31:09.446Z,0.53
2023-05-16T02:32:09.416Z,0.53
2023-05-16T02:33:09.520Z,0.53
2023-05-16T02:34:09.486Z,0.51
2023-05-16T02:35:09.510Z,0.51
2023-05-16T02:36:09.566Z,0.51
2023-05-16T02:37:10.734Z,0.51
2023-05-16T02:38:09.556Z,0.54
2023-05-16T02:39:09.533Z,0.54
2023-05-16T02:40:09.519Z,0.53
2023-05-16T02:41:09.502Z,0.55
2023-05-16T02:42:09.492Z,0.54
2023-05-16T02:43:09.478Z,0.53
2023-05-16T02:44:09.460Z,0.54
2023-05-16T02:45:09.444Z,0.52
2023-05-16T02:46:09.459Z,0.51
2023-05-16T02:47:09.420Z,0.54
2023-05-16T02:48:09.532Z,0.52
2023-05-16T02:49:09.408Z,0.52
2023-05-16T02:50:09.387Z,0.54
2023-05-16T02:51:09.374Z,0.54
2023-05-16T02:52:09.353Z,0.52
2023-05-16T02:53:09.342Z,0.52
2023-05-16T02:54:09.339Z,0.51
2023-05-16T02:55:23.898Z,0.53
2023-05-16T02:56:10.321Z,0.53
2023-05-16T02:57:09.300Z,0.53
2023-05-16T02:58:09.286Z,0.53
2023-05-16T02:59:09.291Z,0.51
2023-05-16T03:00:09.272Z,0.53
2023-05-16T03:01:09.350Z,0.52
2023-05-16T03:02:09.336Z,0.52
2023-05-16T03:03:09.333Z,0.52
2023-05-16T03:04:09.258Z,0.51
2023-05-16T03:05:09.219Z,0.51
2023-05-16T03:06:09.270Z,0.54
2023-05-16T03:07:09.295Z,0.51
2023-05-16T03:08:09.321Z,0.52
2023-05-16T03:09:09.384Z,0.53
2023-05-16T03:10:09.443Z,0.53
2023-05-16T03:11:09.455Z,0.50
2023-05-16T03:12:09.478Z,0.53
2023-05-16T03:13:09.516Z,0.51
2023-05-16T03:14:09.531Z,0.53
2023-05-16T03:15:09.626Z,0.53
2023-05-16T03:16:09.643Z,0.52
2023-05-16T03:17:09.584Z,0.52
2023-05-16T03:18:09.659Z,0.50
2023-05-16T03:19:09.657Z,0.53
2023-05-16T03:20:09.668Z,0.52
2023-05-16T03:21:09.698Z,0.53
2023-05-16T03:22:09.725Z,0.51
2023-05-16T03:23:09.748Z,0.53
2023-05-16T03:24:09.834Z,0.54
2023-05-16T03:25:09.818Z,0.51
2023-05-16T03:26:09.867Z,0.54
2023-05-16T03:27:09.900Z,0.52
2023-05-16T03:28:09.923Z,0.53
2023-05-16T03:29:09.940Z,0.55
2023-05-16T03:30:09.943Z,0.55
2023-05-16T03:31:10.040Z,0.52
2023-05-16T03:32:10.074Z,0.52
2023-05-16T03:33:10.104Z,0.53
2023-05-16T03:34:10.044Z,0.53
2023-05-16T03:35:10.039Z,0.52
2023-05-16T03:36:10.073Z,0.53
2023-05-16T03:37:10.070Z,0.52
2023-05-16T03:38:10.106Z,0.53
2023-05-16T03:39:10.128Z,0.54
2023-05-16T03:40:10.136Z,0.53
2023-05-16T03:41:10.151Z,0.52
2023-05-16T03:42:10.170Z,0.52
2023-05-16T03:43:10.176Z,0.54
2023-05-16T03:44:10.213Z,0.52
2023-05-16T03:45:10.236Z,0.54
2023-05-16T03:46:10.345Z,0.54
2023-05-16T03:47:10.290Z,0.52
2023-05-16T03:48:10.354Z,0.53
2023-05-16T03:49:10.308Z,0.53
2023-05-16T03:50:10.321Z,0.51
2023-05-16T03:51:10.377Z,0.56
2023-05-16T03:52:10.401Z,0.55
2023-05-16T03:53:10.445Z,0.52
2023-05-16T03:54:10.458Z,0.55
2023-05-16T03:55:10.489Z,0.55
2023-05-16T03:56:10.526Z,0.51
2023-05-16T03:57:10.556Z,0.51
2023-05-16T03:58:10.551Z,0.52
2023-05-16T03:59:10.542Z,0.53
2023-05-16T04:00:10.547Z,0.51
2023-05-16T04:01:10.577Z,0.54
2023-05-16T04:02:10.627Z,0.54
2023-05-16T04:03:10.644Z,0.54
2023-05-16T04:04:10.622Z,0.53
2023-05-16T04:05:10.700Z,0.53
2023-05-16T04:06:10.734Z,0.53
2023-05-16T04:07:10.667Z,0.51
2023-05-16T04:08:10.681Z,0.53
2023-05-16T04:09:10.683Z,0.51
2023-05-16T04:10:10.682Z,0.52
2023-05-16T04:11:10.697Z,0.54
2023-05-16T04:12:10.680Z,0.54
2023-05-16T04:13:10.689Z,0.53
2023-05-16T04:14:10.751Z,0.53
2023-05-16T04:15:10.705Z,0.52
2023-05-16T04:16:10.760Z,0.52
2023-05-16T04:17:11.048Z,0.52
2023-05-16T04:18:10.930Z,0.52
2023-05-16T04:19:10.904Z,0.51
2023-05-16T04:20:10.874Z,0.54
2023-05-16T04:21:10.944Z,0.51
2023-05-16T04:22:10.926Z,0.53
2023-05-16T04:23:10.957Z,0.53
2023-05-16T04:24:10.965Z,0.53
2023-05-16T04:25:10.996Z,0.54
2023-05-16T04:26:11.018Z,0.53
2023-05-16T04:27:11.005Z,0.53
2023-05-16T04:28:11.002Z,0.53
2023-05-16T04:29:10.998Z,0.53
2023-05-16T04:30:10.979Z,0.52
2023-05-16T04:31:11.021Z,0.52
2023-05-16T04:32:10.965Z,0.52
2023-05-16T04:33:11.001Z,0.53
2023-05-16T04:34:10.924Z,0.53
2023-05-16T04:35:10.902Z,0.53
2023-05-16T04:36:10.905Z,0.51
2023-05-16T04:37:10.878Z,0.53
2023-05-16T04:38:10.882Z,0.52
2023-05-16T04:39:10.868Z,0.51
2023-05-16T04:40:10.866Z,0.53
2023-05-16T04:41:10.862Z,0.54
2023-05-16T04:42:10.853Z,0.53
2023-05-16T04:43:10.854Z,0.53
2023-05-16T04:44:10.857Z,0.54
2023-05-16T04:45:10.839Z,0.52
2023-05-16T04:46:10.856Z,0.51
2023-05-16T04:47:10.832Z,0.53
2023-05-16T04:48:10.901Z,0.54
2023-05-16T04:49:10.840Z,0.55
2023-05-16T04:50:10.839Z,0.52
2023-05-16T04:51:10.849Z,0.53
2023-05-16T04:52:10.864Z,0.51
2023-05-16T04:53:10.978Z,0.55
2023-05-16T04:54:10.896Z,0.53
2023-05-16T04:55:10.895Z,0.55
2023-05-16T04:56:10.900Z,0.56
2023-05-16T04:57:10.912Z,0.53
2023-05-16T04:58:10.935Z,0.52
2023-05-16T04:59:10.937Z,0.53
2023-05-16T05:00:10.929Z,0.52
2023-05-16T05:01:11.018Z,0.51
2023-05-16T05:02:11.013Z,0.53
2023-05-16T05:03:11.184Z,0.54
2023-05-16T05:04:11.026Z,0.53
2023-05-16T05:05:11.107Z,0.54
2023-05-16T05:06:11.066Z,0.56
2023-05-16T05:07:11.085Z,0.53
2023-05-16T05:08:11.104Z,0.53
2023-05-16T05:09:11.109Z,0.53
2023-05-16T05:10:11.123Z,0.51
2023-05-16T05:11:11.127Z,0.55
2023-05-16T05:12:11.120Z,0.55
2023-05-16T05:13:11.141Z,0.52
2023-05-16T05:14:11.092Z,0.54
2023-05-16T05:15:11.109Z,0.52
2023-05-16T05:16:11.101Z,0.53
2023-05-16T05:17:11.124Z,0.52
2023-05-16T05:18:11.252Z,0.55
2023-05-16T05:19:11.165Z,0.55
2023-05-16T05:20:11.084Z,0.56
2023-05-16T05:21:11.092Z,0.60
2023-05-16T05:22:11.066Z,0.50
2023-05-16T05:23:11.147Z,0.46
2023-05-16T05:24:11.052Z,0.45
2023-05-16T05:25:11.053Z,0.47
2023-05-16T05:26:11.069Z,0.47
2023-05-16T05:27:11.048Z,0.53
2023-05-16T05:28:11.065Z,0.58
2023-05-16T05:29:11.192Z,0.60
2023-05-16T05:30:11.132Z,0.62
2023-05-16T05:31:11.166Z,0.67
2023-05-16T05:32:11.226Z,0.62
2023-05-16T05:33:11.256Z,0.62
2023-05-16T05:34:12.199Z,0.62
2023-05-16T05:35:11.209Z,0.63
2023-05-16T05:36:11.226Z,0.64
2023-05-16T05:37:11.219Z,0.66
2023-05-16T05:38:11.227Z,0.69
2023-05-16T05:39:11.225Z,0.73
2023-05-16T05:40:11.220Z,0.74
2023-05-16T05:41:11.213Z,0.78
2023-05-16T05:42:11.200Z,0.81
2023-05-16T05:43:13.063Z,0.80
2023-05-16T05:44:11.184Z,0.86
2023-05-16T05:45:11.166Z,0.87
2023-05-16T05:46:11.274Z,0.93
2023-05-16T05:47:11.137Z,0.98
2023-05-16T05:48:11.199Z,1.00
2023-05-16T05:49:11.137Z,1.07
2023-05-16T05:50:11.175Z,1.12
2023-05-16T05:51:11.211Z,1.20
2023-05-16T05:52:12.029Z,1.23
2023-05-16T05:53:11.247Z,1.22
2023-05-16T05:54:11.258Z,1.31
2023-05-16T05:55:11.286Z,1.38
2023-05-16T05:56:11.289Z,1.43
2023-05-16T05:57:11.466Z,1.45
2023-05-16T05:58:11.397Z,1.57
2023-05-16T05:59:11.346Z,1.69
2023-05-16T06:00:11.351Z,1.78
2023-05-16T06:01:11.362Z,1.85
2023-05-16T06:02:11.417Z,1.95
2023-05-16T06:03:11.497Z,2.01
2023-05-16T06:04:11.410Z,2.11
2023-05-16T06:05:11.450Z,2.21
2023-05-16T06:06:13.076Z,2.34
2023-05-16T06:07:11.432Z,2.43
2023-05-16T06:08:11.446Z,2.59
2023-05-16T06:09:11.462Z,2.75
2023-05-16T06:10:11.494Z,2.99
2023-05-16T06:11:11.429Z,3.00
2023-05-16T06:12:11.400Z,3.03
2023-05-16T06:13:11.376Z,3.13
2023-05-16T06:14:11.352Z,3.27
2023-05-16T06:15:11.332Z,3.52
2023-05-16T06:16:12.049Z,3.67
2023-05-16T06:17:11.392Z,3.96
2023-05-16T06:18:22.214Z,4.23
2023-05-16T06:19:11.249Z,4.25
2023-05-16T06:20:11.184Z,4.32
2023-05-16T06:21:13.066Z,4.47
2023-05-16T06:22:11.125Z,4.73
2023-05-16T06:23:12.077Z,5.24
2023-05-16T06:24:11.059Z,5.43
2023-05-16T06:25:11.961Z,5.35
2023-05-16T06:26:11.006Z,5.26
2023-05-16T06:27:10.978Z,5.28
2023-05-16T06:28:10.947Z,5.30
2023-05-16T06:29:10.911Z,5.14
2023-05-16T06:30:10.899Z,4.92
2023-05-16T06:31:10.937Z,4.98
2023-05-16T06:32:13.213Z,5.07
2023-05-16T06:33:10.832Z,5.45
2023-05-16T06:34:10.775Z,5.40
2023-05-16T06:35:10.780Z,5.25
2023-05-16T06:36:10.725Z,5.45
2023-05-16T06:37:10.691Z,5.13
2023-05-16T06:38:10.672Z,5.10
2023-05-16T06:39:10.659Z,5.33
2023-05-16T06:40:10.630Z,5.34
2023-05-16T06:41:10.609Z,5.35
2023-05-16T06:42:10.600Z,5.34
2023-05-16T06:43:10.642Z,5.25
2023-05-16T06:44:10.561Z,5.22
2023-05-16T06:45:10.550Z,5.17
2023-05-16T06:46:10.565Z,5.09
2023-05-16T06:47:10.527Z,4.98
2023-05-16T06:48:10.509Z,5.04
2023-05-16T06:49:10.473Z,4.90
2023-05-16T06:50:10.444Z,4.92
2023-05-16T06:51:10.485Z,4.95
2023-05-16T06:52:10.531Z,4.92
2023-05-16T06:53:10.578Z,4.89
2023-05-16T06:54:10.612Z,4.85
2023-05-16T06:55:10.648Z,4.83
2023-05-16T06:56:10.701Z,4.70
2023-05-16T06:57:10.726Z,4.82
2023-05-16T06:58:10.749Z,4.73
2023-05-16T06:59:10.780Z,4.62
2023-05-16T07:00:10.822Z,4.60
2023-05-16T07:01:10.897Z,4.61
2023-05-16T07:02:10.933Z,4.41
2023-05-16T07:03:11.015Z,4.37
2023-05-16T07:04:11.074Z,4.39
2023-05-16T07:05:11.054Z,4.44
2023-05-16T07:06:11.072Z,4.26
2023-05-16T07:07:11.110Z,4.41
2023-05-16T07:08:11.156Z,4.40
2023-05-16T07:09:11.200Z,4.34
2023-05-16T07:10:11.259Z,4.34
2023-05-16T07:11:11.311Z,4.25
2023-05-16T07:12:14.129Z,4.30
2023-05-16T07:13:11.347Z,4.05
2023-05-16T07:14:11.324Z,4.04
2023-05-16T07:15:11.308Z,4.26
2023-05-16T07:16:11.621Z,4.16
2023-05-16T07:17:11.302Z,4.18
2023-05-16T07:18:12.183Z,4.09
2023-05-16T07:19:11.242Z,4.06
2023-05-16T07:20:11.210Z,4.13
2023-05-16T07:21:11.206Z,4.12
2023-05-16T07:22:11.183Z,4.09
2023-05-16T07:23:11.985Z,4.18
2023-05-16T07:24:11.139Z,2.11
2023-05-16T07:25:11.115Z,1.78
2023-05-16T07:26:11.125Z,1.38
2023-05-16T07:27:12.102Z,1.36
2023-05-16T07:28:12.049Z,1.21
2023-05-16T07:29:11.103Z,1.03
2023-05-16T07:30:11.099Z,0.94
2023-05-16T07:31:11.120Z,0.89
2023-05-16T07:32:11.463Z,0.84
2023-05-16T07:33:11.247Z,0.85
2023-05-16T07:34:11.180Z,0.84
2023-05-16T07:35:12.067Z,0.87
2023-05-16T07:36:17.010Z,0.84
2023-05-16T07:37:12.091Z,0.84
2023-05-16T07:38:11.092Z,0.86
2023-05-16T07:39:11.109Z,0.84
2023-05-16T07:40:11.098Z,0.67
2023-05-16T07:41:11.111Z,0.70
2023-05-16T07:42:11.123Z,0.67
2023-05-16T07:43:11.121Z,0.67
2023-05-16T07:44:11.113Z,0.78
2023-05-16T07:45:12.098Z,0.78
2023-05-16T07:46:11.169Z,0.80
2023-05-16T07:47:11.116Z,0.84
2023-05-16T07:48:11.126Z,0.85
2023-05-16T07:49:11.098Z,0.78
2023-05-16T07:50:11.099Z,0.78
2023-05-16T07:51:11.078Z,0.79
2023-05-16T07:52:11.116Z,0.78
2023-05-16T07:53:11.073Z,0.78
2023-05-16T07:54:11.062Z,0.77
2023-05-16T07:55:11.046Z,0.80
2023-05-16T07:56:11.058Z,0.78
2023-05-16T07:57:11.050Z,0.72
2023-05-16T07:58:11.046Z,0.70
2023-05-16T07:59:11.079Z,0.74
2023-05-16T08:00:11.048Z,0.75
2023-05-16T08:01:11.078Z,0.76
2023-05-16T08:02:11.134Z,0.77
2023-05-16T08:03:11.214Z,0.73
2023-05-16T08:04:11.111Z,0.74
2023-05-16T08:05:11.244Z,0.71
2023-05-16T08:06:11.262Z,0.70
2023-05-16T08:07:11.162Z,0.74
2023-05-16T08:08:11.172Z,0.72
2023-05-16T08:09:11.188Z,0.73
2023-05-16T08:10:13.293Z,0.71
2023-05-16T08:11:11.215Z,0.69
2023-05-16T08:12:12.064Z,0.68
2023-05-16T08:13:11.243Z,0.74
2023-05-16T08:14:11.231Z,0.80
2023-05-16T08:15:11.269Z,0.78
2023-05-16T08:16:11.285Z,0.80
2023-05-16T08:17:11.227Z,0.81
2023-05-16T08:18:11.224Z,0.82
2023-05-16T08:19:11.280Z,0.85
2023-05-16T08:20:17.039Z,0.87
2023-05-16T08:21:11.203Z,0.81
2023-05-16T08:22:11.219Z,0.82
2023-05-16T08:23:11.126Z,0.85
2023-05-16T08:24:11.138Z,0.87
2023-05-16T08:25:11.085Z,0.93
2023-05-16T08:26:11.998Z,0.92
2023-05-16T08:27:11.035Z,0.97
2023-05-16T08:28:11.023Z,1.03
2023-05-16T08:29:10.997Z,1.00
2023-05-16T08:30:10.970Z,0.99
2023-05-16T08:31:11.009Z,0.99
2023-05-16T08:32:11.581Z,1.01
2023-05-16T08:33:11.010Z,1.10
2023-05-16T08:34:10.872Z,1.09
2023-05-16T08:35:10.836Z,1.09
2023-05-16T08:36:10.812Z,1.10
2023-05-16T08:37:11.588Z,1.13
2023-05-16T08:38:10.762Z,1.21
2023-05-16T08:39:10.712Z,1.34
2023-05-16T08:40:10.815Z,1.40
2023-05-16T08:41:10.635Z,1.40
2023-05-16T08:42:10.608Z,1.47
2023-05-16T08:43:10.562Z,1.48
2023-05-16T08:44:11.103Z,1.49
2023-05-16T08:45:11.551Z,1.48
2023-05-16T08:46:10.537Z,1.51
2023-05-16T08:47:10.642Z,1.57
2023-05-16T08:48:10.788Z,1.67
2023-05-16T08:49:10.508Z,1.88
2023-05-16T08:50:10.521Z,1.90
2023-05-16T08:51:10.453Z,1.99
2023-05-16T08:52:25.082Z,2.03
2023-05-16T08:53:10.388Z,2.04
2023-05-16T08:54:10.340Z,2.08
2023-05-16T08:55:12.190Z,2.13
2023-05-16T08:56:10.290Z,2.05
2023-05-16T08:57:10.231Z,2.11
2023-05-16T08:58:10.236Z,2.21
2023-05-16T08:59:13.243Z,2.40
2023-05-16T09:00:10.113Z,2.69
2023-05-16T09:01:10.187Z,2.66
2023-05-16T09:02:11.656Z,2.78
2023-05-16T09:03:10.024Z,2.96
2023-05-16T09:04:10.632Z,3.02
2023-05-16T09:05:09.947Z,3.02
2023-05-16T09:06:09.917Z,3.11
2023-05-16T09:07:09.978Z,3.14
2023-05-16T09:08:09.821Z,3.24
2023-05-16T09:09:09.802Z,3.36
2023-05-16T09:10:09.733Z,3.37
2023-05-16T09:11:09.702Z,3.60
2023-05-16T09:12:11.695Z,3.59
2023-05-16T09:13:09.631Z,3.67
2023-05-16T09:14:09.597Z,3.66
2023-05-16T09:16:09.592Z,3.86
2023-05-16T09:17:12.326Z,3.90
2023-05-16T09:18:10.599Z,3.86
2023-05-16T09:19:09.559Z,3.93
2023-05-16T09:20:09.498Z,4.01
2023-05-16T09:21:09.462Z,4.24
2023-05-16T09:22:09.440Z,4.47
2023-05-16T09:23:10.121Z,4.79
2023-05-16T09:24:09.582Z,4.80
2023-05-16T09:25:18.312Z,4.80
2023-05-16T09:26:10.594Z,4.81
2023-05-16T09:27:09.521Z,4.90
2023-05-16T09:28:09.484Z,4.82
2023-05-16T09:29:09.450Z,4.91
2023-05-16T09:30:09.420Z,5.04
2023-05-16T09:31:09.436Z,5.27
2023-05-16T09:32:09.329Z,5.90
2023-05-16T09:33:20.132Z,5.95
2023-05-16T09:34:11.153Z,5.98
2023-05-16T09:35:09.241Z,6.05
2023-05-16T09:36:09.168Z,6.14
2023-05-16T09:37:09.127Z,6.21
2023-05-16T09:38:09.070Z,6.48
2023-05-16T09:39:11.600Z,6.65
2023-05-16T09:40:09.289Z,6.95
2023-05-16T09:41:09.249Z,6.98
2023-05-16T09:42:09.231Z,7.00
2023-05-16T09:43:09.166Z,7.06
2023-05-16T09:44:09.136Z,7.15
2023-05-16T09:45:09.606Z,7.38
2023-05-16T09:46:09.124Z,7.02
2023-05-16T09:47:09.112Z,7.16
2023-05-16T09:48:09.230Z,7.39
2023-05-16T09:49:09.141Z,7.94
2023-05-16T09:50:09.176Z,8.52
2023-05-16T09:51:09.673Z,8.62
2023-05-16T09:52:09.141Z,8.65
2023-05-16T09:53:09.153Z,8.71
2023-05-16T09:54:09.197Z,8.92
2023-05-16T09:55:10.024Z,9.17
2023-05-16T09:56:09.258Z,9.81
2023-05-16T09:57:14.121Z,8.68
2023-05-16T09:58:09.149Z,8.71
2023-05-16T09:59:09.098Z,8.74
2023-05-16T10:00:09.062Z,9.12
2023-05-16T10:01:09.032Z,9.80
2023-05-16T10:02:08.995Z,10.87
2023-05-16T10:03:09.003Z,12.33
2023-05-16T10:04:08.937Z,12.87
2023-05-16T10:05:08.833Z,12.74
2023-05-16T10:06:08.834Z,12.99
2023-05-16T10:07:08.749Z,14.09
2023-05-16T10:08:08.763Z,15.02
2023-05-16T10:09:08.787Z,15.45
2023-05-16T10:10:08.807Z,15.95
2023-05-16T10:11:08.828Z,15.63
2023-05-16T10:12:08.837Z,15.21
2023-05-16T10:13:08.911Z,15.24
2023-05-16T10:14:08.900Z,14.98
2023-05-16T10:15:08.937Z,14.97
2023-05-16T10:16:08.961Z,14.71
2023-05-16T10:17:08.989Z,14.52
2023-05-16T10:18:08.982Z,14.19
2023-05-16T10:19:08.997Z,14.36
2023-05-16T10:20:09.005Z,13.99
2023-05-16T10:21:11.222Z,14.02
2023-05-16T10:22:08.931Z,14.10
2023-05-16T10:23:08.883Z,14.02
2023-05-16T10:24:08.844Z,14.04
2023-05-16T10:25:08.810Z,14.10
2023-05-16T10:26:08.800Z,13.76
2023-05-16T10:27:08.855Z,13.49
2023-05-16T10:28:08.722Z,14.00
2023-05-16T10:29:08.722Z,13.78
2023-05-16T10:30:08.659Z,13.49
2023-05-16T10:31:08.636Z,13.42
2023-05-16T10:32:08.618Z,13.30
2023-05-16T10:33:08.597Z,12.78
2023-05-16T10:34:08.529Z,12.83
2023-05-16T10:35:08.497Z,12.57
2023-05-16T10:36:08.482Z,12.63
2023-05-16T10:37:08.441Z,12.16
2023-05-16T10:38:08.396Z,12.54
2023-05-16T10:39:08.376Z,12.36
2023-05-16T10:40:08.372Z,12.38
2023-05-16T10:41:08.329Z,12.38
2023-05-16T10:42:08.267Z,12.37
2023-05-16T10:43:08.255Z,12.08
2023-05-16T10:44:08.214Z,11.92
2023-05-16T10:45:08.250Z,11.76
2023-05-16T10:46:08.182Z,11.76
2023-05-16T10:47:08.118Z,11.65
2023-05-16T10:48:08.100Z,11.38
2023-05-16T10:49:08.035Z,11.46
2023-05-16T10:50:08.003Z,11.24
2023-05-16T10:51:07.969Z,11.18
2023-05-16T10:52:07.963Z,11.19
2023-05-16T10:53:07.881Z,11.21
2023-05-16T10:54:07.844Z,11.07
2023-05-16T10:55:07.828Z,10.91
2023-05-16T10:56:07.788Z,10.86
2023-05-16T10:57:07.778Z,10.82
2023-05-16T10:58:07.732Z,10.62
2023-05-16T10:59:08.624Z,10.55
2023-05-16T11:00:07.656Z,10.22
2023-05-16T11:01:07.835Z,10.24
2023-05-16T11:02:07.675Z,10.34
2023-05-16T11:03:08.250Z,9.97
2023-05-16T11:04:07.547Z,10.08
2023-05-16T11:05:07.506Z,9.85
2023-05-16T11:06:07.468Z,9.83
2023-05-16T11:07:07.675Z,9.90
2023-05-16T11:08:07.410Z,9.61
2023-05-16T11:09:07.392Z,9.63
2023-05-16T11:10:07.399Z,9.62
2023-05-16T11:11:07.406Z,9.36
2023-05-16T11:12:07.427Z,9.48
2023-05-16T11:13:07.431Z,9.35
2023-05-16T11:14:07.431Z,9.00
2023-05-16T11:15:07.492Z,9.30
2023-05-16T11:16:07.459Z,9.22
2023-05-16T11:17:07.626Z,8.94
2023-05-16T11:18:07.531Z,8.93
2023-05-16T11:19:07.528Z,8.94
2023-05-16T11:20:07.514Z,8.96
2023-05-16T11:21:07.503Z,8.67
2023-05-16T11:22:07.506Z,8.76
2023-05-16T11:23:07.514Z,8.60
2023-05-16T11:24:07.530Z,8.57
2023-05-16T11:25:07.551Z,8.31
2023-05-16T11:26:07.582Z,8.48
2023-05-16T11:27:07.556Z,8.43
2023-05-16T11:28:07.569Z,8.36
2023-05-16T11:29:07.579Z,8.41
2023-05-16T11:30:07.594Z,8.32
2023-05-16T11:31:07.697Z,8.22
2023-05-16T11:32:07.624Z,8.20
2023-05-16T11:33:07.692Z,8.13
2023-05-16T11:34:07.649Z,8.08
2023-05-16T11:35:07.656Z,7.96
2023-05-16T11:37:07.662Z,7.96
2023-05-16T11:38:07.600Z,7.99
2023-05-16T11:39:07.615Z,7.86
2023-05-16T11:40:07.584Z,7.86
2023-05-16T11:41:07.517Z,7.80
2023-05-16T11:42:07.489Z,7.90
2023-05-16T11:43:07.655Z,7.64
2023-05-16T11:44:07.437Z,7.82
2023-05-16T11:45:07.401Z,7.48
2023-05-16T11:46:07.413Z,7.54
2023-05-16T11:47:07.382Z,7.48
2023-05-16T11:48:07.337Z,7.51
2023-05-16T11:49:07.317Z,7.52
2023-05-16T11:50:07.280Z,7.53
2023-05-16T11:51:07.244Z,7.51
2023-05-16T11:52:07.220Z,7.43
2023-05-16T11:53:08.136Z,7.36
2023-05-16T11:54:07.133Z,7.35
2023-05-16T11:55:07.108Z,7.26
2023-05-16T11:56:07.109Z,7.22
2023-05-16T11:57:07.073Z,7.34
2023-05-16T11:58:07.033Z,7.23
2023-05-16T11:59:06.995Z,7.06
2023-05-16T12:00:06.969Z,7.12
2023-05-16T12:01:06.979Z,6.95
2023-05-16T12:02:06.988Z,7.30
2023-05-16T12:03:07.094Z,6.92
2023-05-16T12:04:07.121Z,7.01
2023-05-16T12:05:07.148Z,7.06
2023-05-16T12:06:07.062Z,6.86
2023-05-16T12:07:07.073Z,7.13
2023-05-16T12:08:07.108Z,6.96
2023-05-16T12:09:07.123Z,7.00
2023-05-16T12:10:07.144Z,6.72
2023-05-16T12:11:07.153Z,6.89
2023-05-16T12:12:07.170Z,7.00
2023-05-16T12:13:07.186Z,6.75
2023-05-16T12:14:07.220Z,6.66
2023-05-16T12:15:07.290Z,6.66
2023-05-16T12:16:08.216Z,6.67
2023-05-16T12:17:07.198Z,6.66
2023-05-16T12:18:07.192Z,6.68
2023-05-16T12:19:07.151Z,6.56
2023-05-16T12:20:07.071Z,6.55
2023-05-16T12:21:07.055Z,6.66
2023-05-16T12:22:07.036Z,6.62
2023-05-16T12:23:07.656Z,6.57
2023-05-16T12:24:06.961Z,6.47
2023-05-16T12:25:06.937Z,6.57
2023-05-16T12:26:06.918Z,6.67
2023-05-16T12:27:06.888Z,6.57
2023-05-16T12:28:06.860Z,6.35
2023-05-16T12:29:06.847Z,6.49
2023-05-16T12:30:06.813Z,6.57
2023-05-16T12:31:13.282Z,6.45
2023-05-16T12:32:06.792Z,6.46
2023-05-16T12:33:08.228Z,6.45
2023-05-16T12:34:06.697Z,6.37
2023-05-16T12:35:06.666Z,6.25
2023-05-16T12:36:06.636Z,6.35
2023-05-16T12:37:06.792Z,6.10
2023-05-16T12:38:06.597Z,6.36
2023-05-16T12:39:06.997Z,6.11
2023-05-16T12:40:06.533Z,6.21
2023-05-16T12:41:06.509Z,6.11
2023-05-16T12:42:06.482Z,5.91
2023-05-16T12:43:06.449Z,5.97
2023-05-16T12:44:06.425Z,5.88
2023-05-16T12:45:06.450Z,6.05
2023-05-16T12:46:06.506Z,5.78
2023-05-16T12:47:06.492Z,5.74
2023-05-16T12:48:06.485Z,5.76
2023-05-16T12:49:06.433Z,5.77
2023-05-16T12:50:06.412Z,5.89
2023-05-16T12:51:06.368Z,5.84
2023-05-16T12:52:06.335Z,5.86
2023-05-16T12:53:06.337Z,5.97
2023-05-16T12:54:10.102Z,5.79
2023-05-16T12:55:06.261Z,5.80
2023-05-16T12:56:06.249Z,5.70
2023-05-16T12:57:06.215Z,5.80
2023-05-16T12:58:06.222Z,5.88
2023-05-16T12:59:06.150Z,5.51
2023-05-16T13:00:06.122Z,5.56
2023-05-16T13:01:06.168Z,5.80
2023-05-16T13:02:06.154Z,5.56
2023-05-16T13:03:06.222Z,5.57
2023-05-16T13:04:06.279Z,5.63
2023-05-16T13:05:05.959Z,5.61
2023-05-16T13:06:05.926Z,5.63
2023-05-16T13:07:05.901Z,5.66
2023-05-16T13:08:05.886Z,5.55
2023-05-16T13:09:05.923Z,5.56
2023-05-16T13:10:05.817Z,5.55
2023-05-16T13:11:05.777Z,5.49
2023-05-16T13:12:05.753Z,5.44
2023-05-16T13:13:05.710Z,5.19
2023-05-16T13:14:05.703Z,5.59
2023-05-16T13:15:05.691Z,5.45
2023-05-16T13:16:05.726Z,5.31
2023-05-16T13:17:05.746Z,5.27
2023-05-16T13:18:05.775Z,5.56
2023-05-16T13:19:05.827Z,5.24